Time;durP1;ratioP1;P1;durP2;ratioP2;P2;SDS_P1;SDS_P2;PMS_P1;PMS_P2;Temp;Humidity;BMP_temperature;BMP_pressure;BME280_temperature;BME280_humidity;BME280_pressure;Samples;Min_cycle;Max_cycle;Signal;HPM_P1;HPM_P2
2023/06/28 00:00:14;;;;;;;1.13;1.10;;;;;;;15.49;100.00;90799.38;5031573;28;20412;-66
2023/06/28 00:02:39;;;;;;;1.17;1.05;;;;;;;15.44;100.00;90794.25;5031704;28;20022;-66
2023/06/28 00:05:08;;;;;;;1.35;1.25;;;;;;;15.43;100.00;90800.72;5031505;28;20408;-66
2023/06/28 00:07:34;;;;;;;1.63;1.52;;;;;;;15.49;100.00;90799.38;5031856;28;20025;-66
2023/06/28 00:09:59;;;;;;;2.40;1.38;;;;;;;15.48;100.00;90797.81;5031792;28;20033;-66
2023/06/28 00:12:26;;;;;;;1.77;1.40;;;;;;;15.41;100.00;90798.38;5031468;28;20487;-65
2023/06/28 00:14:53;;;;;;;1.50;1.40;;;;;;;15.33;100.00;90798.53;5031472;28;20065;-66
2023/06/28 00:17:19;;;;;;;1.80;1.70;;;;;;;15.31;100.00;90792.75;5031474;28;20025;-65
2023/06/28 00:19:48;;;;;;;1.88;1.55;;;;;;;15.25;100.00;90795.66;5031454;28;20570;-65
2023/06/28 00:22:17;;;;;;;1.77;1.70;;;;;;;15.21;100.00;90800.13;5031404;28;20476;-65
2023/06/28 00:24:42;;;;;;;28.13;2.72;;;;;;;15.22;100.00;90799.00;5031326;28;20044;-66
2023/06/28 00:27:07;;;;;;;1.80;1.70;;;;;;;15.19;100.00;90797.00;5031465;28;20025;-66
2023/06/28 00:29:33;;;;;;;1.73;1.63;;;;;;;15.13;100.00;90800.25;5031651;28;20092;-66
2023/06/28 00:31:58;;;;;;;1.85;1.75;;;;;;;15.18;100.00;90800.81;5031366;28;20025;-65
2023/06/28 00:36:59;;;;;;;1.27;1.27;;;;;;;15.24;100.00;90799.44;5030634;22;20555;-66
2023/06/28 00:39:24;;;;;;;1.50;1.42;;;;;;;15.25;100.00;90797.53;5031275;28;20034;-66
2023/06/28 00:41:50;;;;;;;2.67;2.33;;;;;;;15.33;100.00;90802.00;5033831;28;20112;-66
2023/06/28 00:44:15;;;;;;;2.35;1.42;;;;;;;15.35;100.00;90793.63;5035368;28;20040;-66
2023/06/28 00:46:40;;;;;;;2.45;1.38;;;;;;;15.42;100.00;90799.94;5034570;28;20033;-66
2023/06/28 00:49:06;;;;;;;2.58;2.15;;;;;;;15.39;100.00;90791.81;5035137;28;20040;-66
2023/06/28 00:51:32;;;;;;;1.73;1.58;;;;;;;15.41;100.00;90800.28;5034905;28;20232;-66
2023/06/28 00:54:00;;;;;;;1.55;1.45;;;;;;;15.51;100.00;90797.13;5034944;28;20030;-66
2023/06/28 00:56:26;;;;;;;1.70;1.60;;;;;;;15.47;100.00;90796.25;5034686;28;20414;-66
2023/06/28 00:58:52;;;;;;;3.25;2.08;;;;;;;15.33;100.00;90791.28;5034551;28;20021;-66
2023/06/28 01:01:18;;;;;;;1.88;1.77;;;;;;;15.29;100.00;90796.53;5034492;28;20030;-66
2023/06/28 01:03:43;;;;;;;2.95;1.98;;;;;;;15.29;100.00;90807.25;5035026;28;20087;-66
2023/06/28 01:06:12;;;;;;;1.70;1.60;;;;;;;15.19;100.00;90790.88;5034214;28;20057;-66
2023/06/28 01:08:42;;;;;;;0.88;0.88;;;;;;;15.04;100.00;90803.06;5034381;28;20029;-66
2023/06/28 01:11:09;;;;;;;4.55;2.20;;;;;;;15.01;100.00;90794.94;5034418;28;20048;-66
2023/06/28 01:13:35;;;;;;;1.50;1.45;;;;;;;14.93;100.00;90799.28;5034277;28;20056;-66
2023/06/28 01:16:02;;;;;;;1.45;1.35;;;;;;;14.91;100.00;90801.53;5034253;28;20026;-66
2023/06/28 01:18:28;;;;;;;1.77;1.67;;;;;;;14.90;100.00;90797.28;5034310;28;20049;-66
2023/06/28 01:20:54;;;;;;;1.95;1.85;;;;;;;14.89;100.00;90807.22;5034101;28;20033;-66
2023/06/28 01:23:26;;;;;;;2.17;1.77;;;;;;;14.87;100.00;90792.63;5034105;28;20047;-66
2023/06/28 01:25:52;;;;;;;1.73;1.30;;;;;;;14.82;100.00;90798.19;5033922;28;20025;-66
2023/06/28 01:28:19;;;;;;;1.13;1.13;;;;;;;14.82;100.00;90798.97;5034242;28;20060;-66
2023/06/28 01:30:48;;;;;;;2.17;2.00;;;;;;;14.81;100.00;90797.41;5033494;28;20450;-66
2023/06/28 01:33:14;;;;;;;3.15;1.83;;;;;;;14.85;100.00;90792.19;5033880;28;20504;-66
2023/06/28 01:35:40;;;;;;;1.63;1.52;;;;;;;14.78;100.00;90782.03;5033619;28;20095;-66
2023/06/28 01:38:06;;;;;;;2.30;1.30;;;;;;;14.80;100.00;90784.34;5033986;28;20104;-66
2023/06/28 01:40:36;;;;;;;1.30;1.20;;;;;;;14.83;100.00;90789.03;5033957;28;20033;-66
2023/06/28 01:43:06;;;;;;;2.95;1.67;;;;;;;14.82;100.00;90788.25;5034031;28;20026;-66
2023/06/28 01:45:35;;;;;;;2.00;1.60;;;;;;;14.79;100.00;90783.56;5033508;28;20029;-66
2023/06/28 01:48:02;;;;;;;1.92;1.83;;;;;;;14.80;100.00;90789.72;5034163;28;20030;-66
2023/06/28 01:50:29;;;;;;;1.45;1.35;;;;;;;14.78;100.00;90789.28;5033572;28;20044;-66
2023/06/28 01:53:00;;;;;;;1.67;1.35;;;;;;;14.89;100.00;90783.13;5033156;28;20190;-66
2023/06/28 01:55:25;;;;;;;2.47;1.42;;;;;;;14.87;100.00;90785.38;5033476;28;20035;-66
2023/06/28 01:57:51;;;;;;;2.08;1.95;;;;;;;14.81;100.00;90791.28;5033451;28;20112;-66
2023/06/28 02:00:16;;;;;;;1.40;1.30;;;;;;;14.81;100.00;90791.28;5033414;28;20130;-66
2023/06/28 02:02:42;;;;;;;2.78;1.67;;;;;;;14.75;100.00;90789.94;5033440;28;20123;-66
2023/06/28 02:05:08;;;;;;;2.05;1.95;;;;;;;14.73;100.00;90792.97;5033290;28;20038;-66
2023/06/28 02:07:33;;;;;;;1.75;1.65;;;;;;;14.67;100.00;90792.44;5033463;28;20033;-66
2023/06/28 02:09:59;;;;;;;1.70;1.60;;;;;;;14.63;100.00;90794.19;5033140;28;20526;-66
2023/06/28 02:12:24;;;;;;;1.98;1.88;;;;;;;14.65;100.00;90793.84;5033107;28;20033;-66
2023/06/28 02:14:53;;;;;;;1.52;1.42;;;;;;;14.70;100.00;90788.28;5033401;28;20384;-66
2023/06/28 02:17:21;;;;;;;1.02;1.02;;;;;;;14.76;100.00;90800.31;5032960;28;20442;-66
2023/06/28 02:19:49;;;;;;;2.00;1.85;;;;;;;14.68;100.00;90788.63;5032986;28;20029;-66
2023/06/28 02:22:16;;;;;;;2.67;1.48;;;;;;;14.66;100.00;90790.84;5031720;28;20048;-66
2023/06/28 02:24:42;;;;;;;3.15;2.25;;;;;;;14.59;100.00;90793.31;5032965;28;20495;-66
2023/06/28 02:27:10;;;;;;;1.67;1.58;;;;;;;14.56;100.00;90794.00;5032834;28;20029;-66
2023/06/28 02:29:36;;;;;;;1.85;1.52;;;;;;;14.52;100.00;90801.13;5033121;28;20022;-66
2023/06/28 02:32:03;;;;;;;1.42;1.33;;;;;;;14.42;100.00;90790.06;5032847;28;20083;-66
2023/06/28 02:34:28;;;;;;;2.17;2.08;;;;;;;14.40;100.00;90787.72;5032947;28;20454;-66
2023/06/28 02:36:53;;;;;;;1.00;0.95;;;;;;;14.34;100.00;90789.03;5032564;28;20049;-66
2023/06/28 02:39:19;;;;;;;1.00;1.00;;;;;;;14.33;100.00;90798.19;5032958;28;20471;-66
2023/06/28 02:41:44;;;;;;;4.45;1.40;;;;;;;14.32;100.00;90797.41;5032895;28;20033;-66
2023/06/28 02:44:10;;;;;;;2.22;2.13;;;;;;;14.33;100.00;90796.28;5032872;28;20028;-66
2023/06/28 02:46:36;;;;;;;1.75;1.35;;;;;;;14.31;100.00;90795.06;5032671;28;20427;-66
2023/06/28 02:49:01;;;;;;;1.65;1.55;;;;;;;14.26;100.00;90798.75;5032650;28;20415;-66
2023/06/28 02:51:26;;;;;;;2.38;1.65;;;;;;;14.26;100.00;90800.66;5032770;28;20041;-66
2023/06/28 02:53:52;;;;;;;0.82;0.82;;;;;;;14.27;100.00;90799.53;5032470;28;20499;-66
2023/06/28 02:56:17;;;;;;;1.67;1.58;;;;;;;14.24;100.00;90797.53;5032332;28;20164;-66
2023/06/28 02:58:43;;;;;;;2.20;1.27;;;;;;;14.23;100.00;90795.97;5032596;28;20101;-66
2023/06/28 03:01:09;;;;;;;2.55;2.20;;;;;;;14.27;100.00;90799.53;5032220;28;20438;-66
2023/06/28 03:03:34;;;;;;;2.55;1.58;;;;;;;14.30;100.00;90810.34;5031585;28;20032;-66
2023/06/28 03:06:01;;;;;;;2.60;1.50;;;;;;;14.36;100.00;90808.25;5032068;28;20497;-66
2023/06/28 03:08:26;;;;;;;2.10;2.00;;;;;;;14.47;100.00;90798.66;5032209;28;20032;-66
2023/06/28 03:10:51;;;;;;;1.27;1.23;;;;;;;14.56;100.00;90807.38;5032314;28;20455;-66
2023/06/28 03:13:17;;;;;;;1.80;1.70;;;;;;;14.60;100.00;90802.91;5032122;28;20079;-66
2023/06/28 03:15:42;;;;;;;1.60;1.33;;;;;;;14.66;100.00;90803.44;5032138;28;20057;-66
2023/06/28 03:18:07;;;;;;;1.60;1.50;;;;;;;14.70;100.00;90801.69;5032542;28;20065;-66
2023/06/28 03:20:33;;;;;;;1.15;1.15;;;;;;;14.84;100.00;90809.38;5031992;28;20051;-66
2023/06/28 03:22:58;;;;;;;1.30;1.08;;;;;;;14.97;100.00;90809.00;5032557;28;20034;-66
2023/06/28 03:25:23;;;;;;;1.77;1.63;;;;;;;15.14;100.00;90813.31;5031847;28;20472;-66
2023/06/28 03:27:49;;;;;;;1.02;1.02;;;;;;;15.27;100.00;90808.69;5032182;28;20033;-66
2023/06/28 03:30:15;;;;;;;1.95;1.85;;;;;;;15.39;100.00;90805.22;5032235;28;20033;-66
2023/06/28 03:32:40;;;;;;;1.42;1.35;;;;;;;15.53;100.00;90806.38;5032137;28;20399;-66
2023/06/28 03:35:06;;;;;;;2.67;2.47;;;;;;;15.64;100.00;90805.94;5031828;28;20427;-66
2023/06/28 03:37:33;;;;;;;1.00;1.00;;;;;;;15.72;100.00;90803.09;5032158;28;20033;-66
2023/06/28 03:39:58;;;;;;;2.55;1.77;;;;;;;15.71;100.00;90803.44;5032117;28;20037;-66
2023/06/28 03:42:24;;;;;;;1.60;1.50;;;;;;;15.72;100.00;90802.31;5031856;28;20048;-66
2023/06/28 03:44:49;;;;;;;1.05;1.05;;;;;;;15.74;100.00;90800.06;5031907;28;20419;-66
2023/06/28 03:47:15;;;;;;;1.20;1.20;;;;;;;15.66;100.00;90803.69;5031669;28;20029;-66
2023/06/28 03:49:40;;;;;;;4.57;1.70;;;;;;;15.71;100.00;90806.13;5031977;28;20025;-66
2023/06/28 03:52:06;;;;;;;1.88;1.77;;;;;;;15.80;100.00;90806.75;5031995;28;20025;-66
2023/06/28 03:54:32;;;;;;;2.15;1.95;;;;;;;15.79;100.00;90816.72;5031560;28;20034;-66
2023/06/28 03:56:58;;;;;;;1.08;1.08;;;;;;;15.79;100.00;90806.00;5031697;28;20026;-66
2023/06/28 03:59:24;;;;;;;2.63;1.75;;;;;;;15.90;100.00;90805.47;5031853;28;20030;-66
2023/06/28 04:01:49;;;;;;;2.17;1.55;;;;;;;16.10;100.00;90815.22;5031657;28;20084;-66
2023/06/28 04:04:16;;;;;;;1.67;1.58;;;;;;;16.13;100.00;90807.25;5031788;28;20073;-67
2023/06/28 04:06:41;;;;;;;1.58;1.38;;;;;;;16.29;100.00;90806.50;5031756;28;20108;-66
2023/06/28 04:09:08;;;;;;;1.40;1.23;;;;;;;16.39;100.00;90817.47;5031882;28;20510;-66
2023/06/28 04:11:33;;;;;;;2.70;1.73;;;;;;;16.43;100.00;90820.25;5031575;28;20036;-66
2023/06/28 04:13:58;;;;;;;1.67;1.58;;;;;;;16.66;100.00;90812.38;5032082;28;20104;-66
2023/06/28 04:16:24;;;;;;;2.20;1.67;;;;;;;16.82;100.00;90804.31;5035295;28;20021;-66
2023/06/28 04:18:49;;;;;;;1.98;1.85;;;;;;;16.70;100.00;90813.25;5035306;28;20059;-66
2023/06/28 04:21:14;;;;;;;1.55;1.45;;;;;;;16.72;100.00;90811.00;5035397;28;20425;-66
2023/06/28 04:23:40;;;;;;;1.80;1.70;;;;;;;16.70;100.00;90805.19;5035559;28;20044;-66
2023/06/28 04:26:05;;;;;;;1.63;1.55;;;;;;;16.79;100.00;90815.75;5035018;28;20025;-66
2023/06/28 04:28:31;;;;;;;1.45;1.35;;;;;;;16.84;100.00;90808.22;5035436;28;20022;-66
2023/06/28 04:30:56;;;;;;;1.85;1.75;;;;;;;16.91;100.00;90811.06;5035014;28;20025;-66
2023/06/28 04:33:22;;;;;;;1.42;1.33;;;;;;;16.90;100.00;90812.22;5035083;28;20029;-68
2023/06/28 04:35:49;;;;;;;1.20;1.20;;;;;;;16.96;100.00;90810.78;5034747;28;20430;-66
2023/06/28 04:38:14;;;;;;;2.53;1.58;;;;;;;16.96;100.00;90810.78;5035200;28;20187;-66
2023/06/28 04:40:40;;;;;;;2.20;2.08;;;;;;;17.15;100.00;90802.00;5034927;28;20145;-66
2023/06/28 04:43:10;;;;;;;2.25;2.05;;;;;;;17.33;100.00;90808.53;5034724;28;20032;-66
2023/06/28 04:45:38;;;;;;;2.05;1.95;;;;;;;17.32;100.00;90800.81;5035101;28;20628;-66
2023/06/28 04:48:05;;;;;;;1.40;1.30;;;;;;;17.35;100.00;90805.47;5034728;28;20491;-66
2023/06/28 04:50:34;;;;;;;3.80;1.63;;;;;;;17.38;100.00;90804.78;5035126;28;20113;-66
2023/06/28 04:53:03;;;;;;;2.40;2.20;;;;;;;17.35;100.00;90800.88;5034976;28;20036;-66
2023/06/28 04:55:32;;;;;;;5.18;1.95;;;;;;;17.49;100.00;90797.72;5034504;28;20044;-66
2023/06/28 04:58:04;;;;;;;3.65;2.20;;;;;;;17.77;100.00;90799.44;5035055;28;20025;-66
2023/06/28 05:00:30;;;;;;;5.45;2.42;;;;;;;17.90;100.00;90795.47;5034871;28;20080;-66
2023/06/28 05:02:57;;;;;;;2.80;1.95;;;;;;;18.15;100.00;90794.03;5034389;28;20109;-66
2023/06/28 05:05:24;;;;;;;2.28;2.08;;;;;;;18.25;100.00;90787.25;5034153;28;20032;-66
2023/06/28 05:07:51;;;;;;;1.95;1.85;;;;;;;18.38;100.00;90790.56;5034604;28;20026;-66
2023/06/28 05:10:17;;;;;;;6.18;1.88;;;;;;;18.43;100.00;90788.34;5034328;28;20034;-66
2023/06/28 05:12:42;;;;;;;1.27;1.27;;;;;;;18.45;100.00;90787.97;5034107;28;20035;-66
2023/06/28 05:15:09;;;;;;;1.85;1.75;;;;;;;18.72;100.00;90789.59;5034032;28;20051;-67
2023/06/28 05:17:34;;;;;;;1.13;1.13;;;;;;;19.04;100.00;90794.72;5034162;28;20160;-66
2023/06/28 05:19:59;;;;;;;2.25;2.15;;;;;;;19.29;100.00;90792.38;5034154;28;20056;-66
2023/06/28 05:22:26;;;;;;;1.20;1.17;;;;;;;19.62;100.00;90792.44;5034044;28;20061;-66
2023/06/28 05:24:52;;;;;;;1.23;1.17;;;;;;;19.83;100.00;90783.81;5034113;28;20116;-66
2023/06/28 05:27:17;;;;;;;3.13;1.40;;;;;;;20.11;100.00;90785.28;5033160;28;20101;-66
2023/06/28 05:29:42;;;;;;;1.83;1.73;;;;;;;20.34;100.00;90797.50;5033839;28;20605;-66
2023/06/28 05:32:08;;;;;;;3.10;1.83;;;;;;;20.32;100.00;90794.38;5034362;28;20064;-67
2023/06/28 05:34:33;;;;;;;2.13;1.98;;;;;;;20.70;100.00;90789.75;5033692;28;20037;-67
2023/06/28 05:36:59;;;;;;;3.15;2.17;;;;;;;20.95;100.00;90800.75;5033827;28;20498;-66
2023/06/28 05:39:24;;;;;;;4.82;3.45;;;;;;;21.22;100.00;90794.00;5033752;28;20554;-67
2023/06/28 05:41:50;;;;;;;1.95;1.77;;;;;;;21.01;100.00;90798.50;5033549;28;20025;-66
2023/06/28 05:44:18;;;;;;;3.63;2.78;;;;;;;20.97;100.00;90793.03;5033611;28;20033;-67
2023/06/28 05:46:43;;;;;;;2.50;2.17;;;;;;;21.03;100.00;90790.78;5033702;28;20549;-67
2023/06/28 05:49:09;;;;;;;1.63;1.52;;;;;;;21.47;100.00;90794.19;5033807;28;20029;-67
2023/06/28 05:51:34;;;;;;;4.13;3.10;;;;;;;22.54;100.00;90799.25;5033553;28;20475;-67
2023/06/28 05:54:00;;;;;;;1.58;1.48;;;;;;;25.56;100.00;90797.44;5033736;28;20032;-67
2023/06/28 05:56:27;;;;;;;3.83;1.98;;;;;;;26.70;100.00;90790.75;5033237;28;20075;-67
2023/06/28 05:58:52;;;;;;;4.93;2.08;;;;;;;28.83;95.43;90797.19;5033734;28;20032;-67
2023/06/28 06:01:18;;;;;;;6.95;3.42;;;;;;;29.44;68.43;90802.06;5033311;28;20120;-67
2023/06/28 06:03:43;;;;;;;3.30;2.28;;;;;;;28.89;69.03;90801.78;5033152;28;20034;-67
2023/06/28 06:06:09;;;;;;;3.67;1.73;;;;;;;29.92;64.73;90803.28;5032932;28;20032;-67
2023/06/28 06:08:35;;;;;;;5.22;2.53;;;;;;;30.45;61.62;90804.59;5033059;28;20033;-67
2023/06/28 06:11:03;;;;;;;2.40;2.25;;;;;;;30.25;59.73;90804.00;5033120;28;20502;-67
2023/06/28 06:13:28;;;;;;;3.55;2.00;;;;;;;29.69;62.10;90807.00;5033191;28;20471;-67
2023/06/28 06:15:54;;;;;;;2.50;2.30;;;;;;;28.64;68.50;90804.22;5032804;28;20100;-67
2023/06/28 06:18:19;;;;;;;13.82;3.92;;;;;;;29.34;67.20;90803.84;5033552;28;20032;-67
2023/06/28 06:20:44;;;;;;;22.33;2.47;;;;;;;30.66;62.41;90803.28;5032858;28;20033;-67
2023/06/28 06:23:10;;;;;;;2.92;2.35;;;;;;;31.87;57.42;90802.31;5033107;28;20032;-67
2023/06/28 06:25:35;;;;;;;31.80;4.60;;;;;;;31.12;57.21;90790.91;5032720;28;20025;-67
2023/06/28 06:28:01;;;;;;;4.30;2.90;;;;;;;31.83;56.73;90801.69;5033291;28;20108;-67
2023/06/28 06:30:26;;;;;;;4.55;2.35;;;;;;;31.91;53.83;90807.72;5032774;28;20132;-67
2023/06/28 06:32:51;;;;;;;2.70;2.40;;;;;;;32.78;52.09;90807.84;5032721;28;20077;-68
2023/06/28 06:35:17;;;;;;;2.72;2.13;;;;;;;32.55;53.08;90811.06;5032602;28;20521;-68
2023/06/28 06:37:45;;;;;;;8.93;2.58;;;;;;;32.26;56.02;90806.50;5031306;28;20093;-67
2023/06/28 06:40:11;;;;;;;3.78;2.92;;;;;;;32.56;53.54;90813.34;5032797;28;20032;-67
2023/06/28 06:42:36;;;;;;;4.20;3.05;;;;;;;33.00;52.84;90808.63;5032804;28;20029;-68
2023/06/28 06:45:02;;;;;;;2.63;2.17;;;;;;;33.29;49.73;90802.00;5032327;28;20155;-68
2023/06/28 06:47:27;;;;;;;5.97;3.28;;;;;;;31.82;53.20;90813.91;5032515;28;20044;-68
2023/06/28 06:49:52;;;;;;;3.60;2.95;;;;;;;31.95;54.19;90806.38;5032428;28;20399;-68
2023/06/28 06:52:18;;;;;;;3.72;2.60;;;;;;;32.96;51.54;90810.72;5032242;28;20100;-68
2023/06/28 06:54:43;;;;;;;3.63;3.33;;;;;;;33.86;50.16;90808.09;5032368;28;20028;-68
2023/06/28 06:57:09;;;;;;;2.90;2.22;;;;;;;33.09;51.44;90805.13;5032358;28;20104;-68
2023/06/28 06:59:34;;;;;;;7.75;2.67;;;;;;;33.77;50.74;90803.31;5032367;28;20407;-68
2023/06/28 07:01:59;;;;;;;1.67;1.58;;;;;;;33.65;49.49;90802.19;5032151;28;20483;-68
2023/06/28 07:04:25;;;;;;;2.53;2.33;;;;;;;32.32;51.58;90807.50;5031787;28;20090;-68
2023/06/28 07:06:50;;;;;;;1.92;1.75;;;;;;;31.50;52.66;90798.41;5031816;28;20033;-68
2023/06/28 07:09:18;;;;;;;3.00;2.78;;;;;;;32.79;52.47;90801.09;5032201;28;20478;-68
2023/06/28 07:11:44;;;;;;;8.77;2.50;;;;;;;34.97;47.38;90801.41;5031971;28;20483;-68
2023/06/28 07:14:10;;;;;;;9.02;3.28;;;;;;;34.93;45.91;90800.81;5032080;28;20055;-68
2023/06/28 07:16:35;;;;;;;2.67;2.33;;;;;;;34.04;46.47;90802.59;5031928;28;20491;-68
2023/06/28 07:19:01;;;;;;;2.97;2.75;;;;;;;31.97;50.68;90803.19;5032089;28;20057;-67
2023/06/28 07:21:27;;;;;;;2.90;2.42;;;;;;;33.80;48.12;90794.09;5032090;28;20044;-67
2023/06/28 07:23:54;;;;;;;4.38;3.33;;;;;;;33.86;48.35;90794.28;5031837;28;20021;-68
2023/06/28 07:26:20;;;;;;;2.92;2.67;;;;;;;34.42;45.86;90790.41;5031688;28;20029;-68
2023/06/28 07:28:46;;;;;;;2.50;2.28;;;;;;;33.97;46.16;90791.09;5032089;28;20026;-67
2023/06/28 07:31:11;;;;;;;7.93;2.60;;;;;;;35.92;44.39;90787.13;5031847;28;20106;-67
2023/06/28 07:33:36;;;;;;;6.97;3.22;;;;;;;36.09;42.08;90781.94;5031653;28;20064;-67
2023/06/28 07:36:02;;;;;;;4.35;2.88;;;;;;;33.61;46.69;90784.22;5031407;28;20104;-68
2023/06/28 07:38:27;;;;;;;3.35;2.90;;;;;;;35.33;45.00;90779.16;5031886;28;20065;-68
2023/06/28 07:40:53;;;;;;;3.80;2.83;;;;;;;37.07;42.44;90789.16;5031668;28;20116;-68
2023/06/28 07:43:19;;;;;;;2.70;2.35;;;;;;;35.45;43.19;90779.47;5032464;28;20046;-67
2023/06/28 07:45:45;;;;;;;1.85;1.75;;;;;;;34.96;45.18;90777.75;5031573;28;20033;-68
2023/06/28 07:48:10;;;;;;;2.67;2.42;;;;;;;35.26;44.30;90774.00;5031612;28;20091;-67
2023/06/28 07:50:36;;;;;;;2.67;2.03;;;;;;;34.91;44.42;90770.09;5034109;28;20034;-68
2023/06/28 07:53:02;;;;;;;12.13;2.80;;;;;;;33.59;48.09;90770.88;5035597;28;20109;-67
2023/06/28 07:55:28;;;;;;;1.70;1.60;;;;;;;34.70;45.49;90766.25;5035722;28;20061;-67
2023/06/28 07:57:55;;;;;;;4.88;2.97;;;;;;;33.27;46.77;90782.38;5035765;28;20034;-67
2023/06/28 08:00:20;;;;;;;2.78;2.45;;;;;;;32.33;48.83;90776.00;5035799;28;20053;-67
2023/06/28 08:02:45;;;;;;;3.13;2.55;;;;;;;33.39;47.90;90776.03;5035379;28;20499;-67
2023/06/28 08:05:11;;;;;;;5.65;3.17;;;;;;;35.07;45.31;90773.28;5035190;28;20064;-67
2023/06/28 08:07:36;;;;;;;2.58;2.38;;;;;;;36.05;42.93;90779.34;5035337;28;20041;-67
2023/06/28 08:10:02;;;;;;;3.00;2.67;;;;;;;36.02;44.05;90774.00;5035545;28;20046;-67
2023/06/28 08:12:27;;;;;;;2.28;2.08;;;;;;;34.76;44.55;90776.25;5035280;28;20048;-67
2023/06/28 08:14:53;;;;;;;5.43;3.75;;;;;;;34.78;44.94;90778.53;5035013;28;20037;-67
2023/06/28 08:17:18;;;;;;;2.63;2.33;;;;;;;34.19;47.50;90773.16;5035114;28;20124;-67
2023/06/28 08:19:43;;;;;;;2.85;2.55;;;;;;;33.33;49.73;90775.09;5035124;28;20040;-67
2023/06/28 08:22:09;;;;;;;4.72;3.67;;;;;;;35.16;46.50;90768.94;5035049;28;20164;-67
2023/06/28 08:24:34;;;;;;;2.80;2.60;;;;;;;36.00;43.15;90775.22;5033573;28;20033;-68
2023/06/28 08:27:00;;;;;;;6.85;3.03;;;;;;;35.63;43.65;90762.78;5035092;28;20447;-67
2023/06/28 08:29:26;;;;;;;6.47;3.15;;;;;;;32.53;48.52;90769.44;5035016;28;20045;-67
2023/06/28 08:31:51;;;;;;;2.85;2.55;;;;;;;31.64;53.85;90767.69;5035174;28;20108;-67
2023/06/28 08:34:18;;;;;;;1.80;1.70;;;;;;;34.70;46.80;90767.03;5034962;28;20499;-67
2023/06/28 08:36:43;;;;;;;9.77;2.28;;;;;;;35.35;44.60;90767.66;5034998;28;20427;-67
2023/06/28 08:39:09;;;;;;;2.53;2.20;;;;;;;37.14;41.76;90769.38;5033541;28;20041;-67
2023/06/28 08:41:35;;;;;;;2.25;2.05;;;;;;;37.81;40.78;90780.81;5034728;28;20147;-67
2023/06/28 08:44:02;;;;;;;4.68;4.22;;;;;;;35.70;42.90;90770.75;5034774;28;20120;-67
2023/06/28 08:46:29;;;;;;;5.07;2.60;;;;;;;34.79;44.32;90769.78;5034561;28;20041;-67
2023/06/28 08:48:55;;;;;;;3.63;2.10;;;;;;;33.63;46.53;90771.53;5034695;28;20049;-67
2023/06/28 08:51:22;;;;;;;3.28;2.90;;;;;;;31.53;51.57;90775.50;5035230;28;20491;-67
2023/06/28 08:53:48;;;;;;;3.20;2.50;;;;;;;34.43;45.78;90764.31;5034477;28;20091;-68
2023/06/28 08:56:15;;;;;;;2.15;2.00;;;;;;;34.74;45.99;90784.22;5034666;28;20064;-67
2023/06/28 08:58:41;;;;;;;2.40;2.20;;;;;;;35.02;45.41;90775.88;5034692;28;20045;-67
2023/06/28 09:01:11;;;;;;;2.15;2.05;;;;;;;34.72;44.74;90781.16;5033290;28;20568;-67
2023/06/28 09:03:41;;;;;;;7.35;3.95;;;;;;;36.76;42.97;90777.72;5033426;28;20503;-66
2023/06/28 09:06:07;;;;;;;2.78;2.55;;;;;;;37.80;41.02;90776.50;5034514;28;20037;-67
2023/06/28 09:08:34;;;;;;;3.95;3.15;;;;;;;37.27;41.68;90779.47;5034556;28;20041;-67
2023/06/28 09:11:00;;;;;;;2.75;2.55;;;;;;;38.86;39.49;90774.34;5034548;28;20120;-66
2023/06/28 09:13:27;;;;;;;3.65;2.65;;;;;;;39.81;38.55;90780.81;5034325;28;20046;-67
2023/06/28 09:15:54;;;;;;;17.25;2.97;;;;;;;37.55;41.17;90771.56;5034156;28;20117;-67
2023/06/28 09:18:19;;;;;;;2.45;2.25;;;;;;;38.32;38.82;90763.59;5034409;28;20040;-67
2023/06/28 09:20:54;;;;;;;6.00;3.28;;;;;;;37.75;38.89;90768.88;5034239;28;20042;-67
2023/06/28 09:23:28;;;;;;;4.05;3.75;;;;;;;37.35;40.27;90763.94;5034318;28;20033;-67
2023/06/28 09:25:54;;;;;;;4.00;3.60;;;;;;;36.96;40.64;90769.56;5033842;28;20491;-67
2023/06/28 09:28:22;;;;;;;3.95;2.60;;;;;;;38.39;39.22;90768.00;5034004;28;20509;-67
2023/06/28 09:30:52;;;;;;;3.10;2.40;;;;;;;35.81;41.36;90759.16;5033964;28;20397;-67
2023/06/28 09:33:18;;;;;;;4.40;2.75;;;;;;;34.03;45.77;90756.13;5034201;28;20037;-67
2023/06/28 09:35:44;;;;;;;3.35;3.05;;;;;;;34.96;44.45;90759.19;5033609;28;20404;-67
2023/06/28 09:38:10;;;;;;;3.55;2.85;;;;;;;34.95;44.74;90754.13;5033829;28;20499;-67
2023/06/28 09:40:36;;;;;;;3.08;2.15;;;;;;;33.81;45.67;90756.22;5033821;28;20061;-67
2023/06/28 09:43:02;;;;;;;3.20;2.90;;;;;;;33.71;46.95;90751.91;5033789;28;20045;-67
2023/06/28 09:45:36;;;;;;;2.63;2.38;;;;;;;32.81;49.56;90745.56;5033496;28;20049;-67
2023/06/28 09:48:03;;;;;;;5.40;3.42;;;;;;;31.62;52.13;90752.84;5033674;28;20052;-67
2023/06/28 09:50:36;;;;;;;3.05;2.80;;;;;;;32.74;51.75;90749.34;5033788;28;20483;-67
2023/06/28 09:53:03;;;;;;;4.97;4.30;;;;;;;33.11;48.50;90752.31;5033976;28;20046;-67
2023/06/28 09:55:28;;;;;;;3.17;2.40;;;;;;;32.92;48.54;90741.19;5033534;28;20141;-67
2023/06/28 09:57:56;;;;;;;3.63;2.70;;;;;;;32.98;52.54;90747.69;5033374;28;20117;-67
2023/06/28 10:00:23;;;;;;;2.78;2.55;;;;;;;36.31;45.85;90743.63;5033250;28;20064;-67
2023/06/28 10:02:49;;;;;;;4.43;3.08;;;;;;;37.13;42.15;90742.88;5033614;28;20072;-67
2023/06/28 10:05:16;;;;;;;3.83;2.78;;;;;;;33.84;46.36;90741.50;5033398;28;20045;-67
2023/06/28 10:07:42;;;;;;;2.17;1.98;;;;;;;32.15;49.88;90735.31;5033559;28;20095;-67
2023/06/28 10:10:09;;;;;;;2.95;2.40;;;;;;;32.95;49.91;90734.00;5033346;28;20030;-67
2023/06/28 10:12:37;;;;;;;5.95;3.67;;;;;;;33.82;47.55;90727.41;5032895;28;20037;-67
2023/06/28 10:15:08;;;;;;;4.28;2.50;;;;;;;33.28;46.48;90726.78;5033291;28;20087;-67
2023/06/28 10:17:35;;;;;;;4.68;3.10;;;;;;;31.56;51.02;90730.63;5033357;28;20029;-67
2023/06/28 10:20:02;;;;;;;4.35;2.67;;;;;;;30.19;58.82;90726.16;5033163;28;20029;-66
2023/06/28 10:22:29;;;;;;;5.03;2.65;;;;;;;32.06;55.59;90727.00;5033019;28;20029;-67
2023/06/28 10:24:56;;;;;;;4.22;3.35;;;;;;;33.70;47.87;90715.28;5033119;28;20025;-67
2023/06/28 10:27:22;;;;;;;4.80;3.60;;;;;;;34.83;45.96;90715.09;5032938;28;20033;-67
2023/06/28 10:29:50;;;;;;;3.83;3.03;;;;;;;32.85;46.65;90718.66;5033200;28;20022;-67
2023/06/28 10:32:16;;;;;;;3.95;2.38;;;;;;;30.82;50.29;90720.78;5032840;28;20045;-67
2023/06/28 10:34:45;;;;;;;4.32;3.08;;;;;;;31.25;52.37;90716.75;5032729;28;20064;-67
2023/06/28 10:37:11;;;;;;;4.10;2.10;;;;;;;32.12;48.36;90718.91;5032933;28;20503;-67
2023/06/28 10:39:38;;;;;;;2.80;2.50;;;;;;;31.06;55.10;90715.72;5032989;28;20036;-66
2023/06/28 10:42:04;;;;;;;3.47;3.17;;;;;;;30.61;57.48;90711.19;5032649;28;20152;-66
2023/06/28 10:44:30;;;;;;;3.00;2.80;;;;;;;30.48;61.40;90718.66;5032777;28;20112;-67
2023/06/28 10:47:12;;;;;;;3.47;2.80;;;;;;;32.71;55.81;90717.19;5032691;28;20107;-67
2023/06/28 10:49:40;;;;;;;6.87;3.73;;;;;;;33.42;51.47;90717.19;5032827;28;20388;-67
2023/06/28 10:52:16;;;;;;;3.25;2.92;;;;;;;30.31;51.64;90708.97;5032759;28;20120;-67
2023/06/28 10:54:42;;;;;;;8.27;2.15;;;;;;;30.35;58.10;90704.13;5032764;28;20130;-67
2023/06/28 10:57:10;;;;;;;3.10;2.47;;;;;;;31.84;56.95;90713.19;5032664;28;20494;-67
2023/06/28 10:59:36;;;;;;;5.20;3.97;;;;;;;32.93;50.75;90695.13;5032715;28;20032;-67
2023/06/28 11:02:02;;;;;;;2.78;2.58;;;;;;;31.99;47.50;90712.69;5032407;28;20040;-67
2023/06/28 11:04:27;;;;;;;2.92;2.20;;;;;;;31.59;47.19;90705.00;5032215;28;20025;-67
2023/06/28 11:07:02;;;;;;;3.00;2.42;;;;;;;33.61;50.17;90685.69;5031853;28;20510;-67
2023/06/28 11:09:28;;;;;;;4.85;3.20;;;;;;;31.46;52.01;90685.03;5032352;28;20502;-65
2023/06/28 11:11:57;;;;;;;7.72;3.22;;;;;;;31.39;53.12;90696.25;5032155;28;20036;-65
2023/06/28 11:14:27;;;;;;;3.53;2.78;;;;;;;32.18;50.57;90693.13;5032322;28;20048;-66
2023/06/28 11:17:19;;;;;;;3.15;2.75;;;;;;;32.66;50.29;90690.22;5032089;28;20037;-66
2023/06/28 11:19:45;;;;;;;5.80;3.35;;;;;;;33.24;48.15;90682.06;5032410;28;20041;-66
2023/06/28 11:22:11;;;;;;;2.20;2.00;;;;;;;33.33;46.23;90676.59;5032081;28;20083;-67
2023/06/28 11:24:40;;;;;;;3.55;3.25;;;;;;;34.01;48.34;90684.06;5031370;28;20036;-66
2023/06/28 11:27:17;;;;;;;3.80;2.47;;;;;;;34.23;47.51;90673.59;5032032;28;20025;-66